This is the latest recevied weather packets stored in our database for station/object PD0HRY-12. If no packets are shown the sender has not sent any weather packets the latest 10 day(s).
| Time | Temp. | Humidity | Pressure | Rain* | Wind** | Luminosity | Snow |
|---|---|---|---|---|---|---|---|
| 1777284000 | 13.33° C | 57% | 1017 hPa | - | - | - | - |
| 1777282204 | 13.33° C | 59% | 1017 hPa | - | - | - | - |
| 1777280402 | 12.22° C | 62% | 1017 hPa | - | - | - | - |
| 1777278601 | 11.11° C | 65% | 1018 hPa | - | - | - | - |
| 1777276804 | 10.56° C | 66% | 1018 hPa | - | - | - | - |
| 1777275003 | 8.89° C | 72% | 1018 hPa | - | - | - | - |
| 1777273201 | 8.33° C | 75% | 1018 hPa | - | - | - | - |
| 1777271405 | 7.78° C | 76% | 1018 hPa | - | - | - | - |
| 1777269603 | 7.78° C | 77% | 1018 hPa | - | - | - | - |
| 1777267801 | 6.67° C | 81% | 1018 hPa | - | - | - | - |
| 1777266005 | 5.56° C | 85% | 1017 hPa | - | - | - | - |
| 1777264203 | 5.56° C | 85% | 1017 hPa | - | - | - | - |
| 1777262401 | 5.56° C | 85% | 1017 hPa | - | - | - | - |
| 1777260604 | 5.56° C | 83% | 1017 hPa | - | - | - | - |
| 1777258803 | 5.56° C | 82% | 1017 hPa | - | - | - | - |
| 1777257001 | 6.11° C | 81% | 1017 hPa | - | - | - | - |
| 1777255204 | 6.67° C | 79% | 1017 hPa | - | - | - | - |
| 1777253403 | 6.67° C | 78% | 1017 hPa | - | - | - | - |
| 1777251601 | 7.22° C | 76% | 1017 hPa | - | - | - | - |
| 1777249804 | 7.22° C | 75% | 1017 hPa | - | - | - | - |
| 1777248002 | 7.78° C | 72% | 1018 hPa | - | - | - | - |
| 1777246201 | 8.33° C | 71% | 1018 hPa | - | - | - | - |
| 1777244404 | 8.89° C | 70% | 1017 hPa | - | - | - | - |
| 1777242602 | 9.44° C | 69% | 1017 hPa | - | - | - | - |
| 1777240802 | 9.44° C | 67% | 1017 hPa | - | - | - | - |
* Rain since midnight (hover to see other rain measurements)
** Current wind speed in m/s (hover to see current wind gust speed)